To NAV CANADA Home Page Login to a new session Search on AWWS site Feedback and Comments Disclaimer Vers la page française équivalente Tips FAQ What's new on the site To the Forecasts and Observations / NOTAM section To "File a Flight Plan" website Publications and other links Update of the User's profile FIC Telephone Numbers My Weather Data Folder Route Weather Data Regional Weather Data Local Weather Data To the Forecasts and Observations / NOTAM section
Request Generated 07/04/2015 at 20:41:51 UTC . Weather information available at that time is displayed.

METAR/TAF

FREDERICTON/FREDERICTON INTL/NB    (show WxCam)

METAR CYFC 042000Z AUTO 21010G15KT 160V230 9SM CLR 26/10 A2992 RMK
SLP133 DENSITY ALT 1300FT=
METAR CYFC 041900Z AUTO 21010G18KT 9SM FEW070 26/10 A2994 RMK SLP137
DENSITY ALT 1300FT=
METAR CYFC 041800Z AUTO 19009G15KT 9SM CLR 26/09 A2995 RMK SLP140
DENSITY ALT 1300FT=

TAF CYFC 041738Z 0418/0506 20010G20KT P6SM FEW060 BKN200
BECMG 0422/0424 18006KT
FM050000 18006KT P6SM BKN160
RMK FCST BASED ON AUTO OBS. NXT FCST BY 050000Z=
Your time UTC time
Weather data provided by Environment Canada and NAV CANADA